Terminal Aerodrome Forecast
Issued by NWS Pocatello, ID

Home | Current Version | Previous Version | Text Only | Print | Product List | Glossary On
Versions: 1 2 3 4 5 6 7 8 9 10 11 12 13
000
FTUS45 KPIH 021120
TAFPIH
TAF
KPIH 021120Z 0212/0312 18011G20KT P6SM FEW200
     FM021500 21010G20KT P6SM SCT120
     FM022000 23017G30KT P6SM FEW150
     FM030200 20010KT P6SM VCSH BKN100=

USA.gov is the U.S. government's official web portal to all federal, state and local government web resources and services.